Terminal Aerodrome Forecast
Issued by NWS Detroit/Pontiac, MI

Home | Current Version | Previous Version | Text Only | Print | Product List | Glossary On
Versions: 1 2 3 4 5 6 7 8 9 10 11 12 13 14 15 16 17 18 19 20 21 22 23 24 25 26 27 28
714
FTUS43 KDTX 070905 AAB
TAFDTW
TAF AMD
KDTW 070905Z 0709/0812 24010G19KT P6SM OVC025
     FM071600 25013G20KT P6SM BKN030
     FM072000 23013KT P6SM SCT035 BKN200
     FM080200 23010KT P6SM BKN025=

USA.gov is the U.S. government's official web portal to all federal, state and local government web resources and services.